sensor_id;sensor_type;location;lat;lon;timestamp;pressure;altitude;pressure_sealevel;temperature;humidity
56272;BME280;42177;48.914;18.160;2024-03-22T00:01:13;988.4;;;12.4;73.2
56272;BME280;42177;48.914;18.160;2024-03-22T00:06:13;988.4;;;12.4;73.2
56272;BME280;42177;48.914;18.160;2024-03-22T00:11:13;988.3;;;12.4;73.4
56272;BME280;42177;48.914;18.160;2024-03-22T00:16:13;988.3;;;12.4;73.4
56272;BME280;42177;48.914;18.160;2024-03-22T00:21:13;988.2;;;12.1;74.5
56272;BME280;42177;48.914;18.160;2024-03-22T00:26:13;988.2;;;12.1;74.5
56272;BME280;42177;48.914;18.160;2024-03-22T00:31:13;988.3;;;12.2;74.6
56272;BME280;42177;48.914;18.160;2024-03-22T00:36:13;988.3;;;12.2;74.6
56272;BME280;42177;48.914;18.160;2024-03-22T00:41:13;988.2;;;12.1;75.2
56272;BME280;42177;48.914;18.160;2024-03-22T00:46:13;988.2;;;12.1;75.2
56272;BME280;42177;48.914;18.160;2024-03-22T00:51:13;988.2;;;12.3;74.8
56272;BME280;42177;48.914;18.160;2024-03-22T00:56:13;988.2;;;12.3;74.8
56272;BME280;42177;48.914;18.160;2024-03-22T01:01:13;988.3;;;12.2;75.4
56272;BME280;42177;48.914;18.160;2024-03-22T01:06:13;988.3;;;12.2;75.4
56272;BME280;42177;48.914;18.160;2024-03-22T01:11:13;988.4;;;11.8;78
56272;BME280;42177;48.914;18.160;2024-03-22T01:16:13;988.4;;;11.8;78
56272;BME280;42177;48.914;18.160;2024-03-22T01:21:13;988.4;;;11.7;79.3
56272;BME280;42177;48.914;18.160;2024-03-22T01:26:13;988.4;;;11.7;79.3
56272;BME280;42177;48.914;18.160;2024-03-22T01:31:13;988.4;;;11.6;79.8
56272;BME280;42177;48.914;18.160;2024-03-22T01:36:13;988.4;;;11.6;79.8
56272;BME280;42177;48.914;18.160;2024-03-22T01:41:13;988.4;;;11.5;80.7
56272;BME280;42177;48.914;18.160;2024-03-22T01:46:13;988.4;;;11.5;80.7
56272;BME280;42177;48.914;18.160;2024-03-22T01:51:13;988.4;;;11.6;81.7
56272;BME280;42177;48.914;18.160;2024-03-22T01:56:13;988.4;;;11.6;81.7
56272;BME280;42177;48.914;18.160;2024-03-22T02:01:13;988.5;;;11.5;81.4
56272;BME280;42177;48.914;18.160;2024-03-22T02:06:13;988.5;;;11.5;81.4
56272;BME280;42177;48.914;18.160;2024-03-22T02:11:13;988.5;;;11.7;79.7
56272;BME280;42177;48.914;18.160;2024-03-22T02:16:13;988.5;;;11.7;79.7
56272;BME280;42177;48.914;18.160;2024-03-22T02:21:13;988.6;;;11.9;79
56272;BME280;42177;48.914;18.160;2024-03-22T02:26:13;988.6;;;11.9;79
56272;BME280;42177;48.914;18.160;2024-03-22T02:31:13;988.2;;;11.3;81.3
56272;BME280;42177;48.914;18.160;2024-03-22T02:36:13;988.2;;;11.3;81.3
56272;BME280;42177;48.914;18.160;2024-03-22T02:41:13;988.3;;;11.4;81.1
56272;BME280;42177;48.914;18.160;2024-03-22T02:46:13;988.3;;;11.4;81.1
56272;BME280;42177;48.914;18.160;2024-03-22T02:51:13;988.3;;;11.4;80.8
56272;BME280;42177;48.914;18.160;2024-03-22T02:56:13;988.3;;;11.4;80.8
56272;BME280;42177;48.914;18.160;2024-03-22T03:01:13;988.3;;;11.3;81.9
56272;BME280;42177;48.914;18.160;2024-03-22T03:06:13;988.3;;;11.3;81.9
56272;BME280;42177;48.914;18.160;2024-03-22T03:11:13;988.3;;;11.4;81
56272;BME280;42177;48.914;18.160;2024-03-22T03:16:13;988.3;;;11.4;81
56272;BME280;42177;48.914;18.160;2024-03-22T03:21:13;988.3;;;11.5;81.4
56272;BME280;42177;48.914;18.160;2024-03-22T03:26:13;988.3;;;11.5;81.4
56272;BME280;42177;48.914;18.160;2024-03-22T03:31:13;988.4;;;11.5;82
56272;BME280;42177;48.914;18.160;2024-03-22T03:36:13;988.4;;;11.5;82
56272;BME280;42177;48.914;18.160;2024-03-22T03:41:13;988.3;;;11.9;80.1
56272;BME280;42177;48.914;18.160;2024-03-22T03:46:13;988.3;;;11.9;80.1
56272;BME280;42177;48.914;18.160;2024-03-22T03:51:13;988.2;;;11.5;81.6
56272;BME280;42177;48.914;18.160;2024-03-22T03:56:13;988.2;;;11.5;81.6
56272;BME280;42177;48.914;18.160;2024-03-22T04:01:13;988.2;;;11.8;80.4
56272;BME280;42177;48.914;18.160;2024-03-22T04:06:13;988.2;;;11.8;80.4
56272;BME280;42177;48.914;18.160;2024-03-22T04:11:13;988.1;;;11.2;84.1
56272;BME280;42177;48.914;18.160;2024-03-22T04:16:13;988.1;;;11.2;84.1
56272;BME280;42177;48.914;18.160;2024-03-22T04:21:13;988.1;;;11.4;82.8
56272;BME280;42177;48.914;18.160;2024-03-22T04:26:13;988.1;;;11.4;82.8
56272;BME280;42177;48.914;18.160;2024-03-22T04:31:13;988.2;;;11.3;83.5
56272;BME280;42177;48.914;18.160;2024-03-22T04:36:13;988.2;;;11.3;83.5
56272;BME280;42177;48.914;18.160;2024-03-22T04:41:13;988.2;;;11.8;81.7
56272;BME280;42177;48.914;18.160;2024-03-22T04:46:13;988.2;;;11.8;81.7
56272;BME280;42177;48.914;18.160;2024-03-22T04:51:13;988.1;;;11.4;84.2
56272;BME280;42177;48.914;18.160;2024-03-22T04:56:13;988.1;;;11.4;84.2
56272;BME280;42177;48.914;18.160;2024-03-22T05:01:13;988.2;;;11.7;83.3
56272;BME280;42177;48.914;18.160;2024-03-22T05:06:13;988.2;;;11.7;83.3
56272;BME280;42177;48.914;18.160;2024-03-22T05:11:13;988.2;;;11.2;84.9
56272;BME280;42177;48.914;18.160;2024-03-22T05:16:13;988.2;;;11.2;84.9
56272;BME280;42177;48.914;18.160;2024-03-22T05:21:13;988.1;;;11.2;84.7
56272;BME280;42177;48.914;18.160;2024-03-22T05:26:13;988.1;;;11.2;84.7
56272;BME280;42177;48.914;18.160;2024-03-22T05:31:13;988.2;;;11.5;83.7
56272;BME280;42177;48.914;18.160;2024-03-22T05:36:13;988.2;;;11.5;83.7
56272;BME280;42177;48.914;18.160;2024-03-22T05:41:13;988.2;;;11.5;83.9
56272;BME280;42177;48.914;18.160;2024-03-22T05:46:13;988.2;;;11.5;83.9
56272;BME280;42177;48.914;18.160;2024-03-22T05:51:13;988.2;;;11.4;84.1
56272;BME280;42177;48.914;18.160;2024-03-22T05:56:13;988.2;;;11.4;84.1
56272;BME280;42177;48.914;18.160;2024-03-22T06:01:13;988.2;;;11.6;83.8
56272;BME280;42177;48.914;18.160;2024-03-22T06:06:13;988.2;;;11.6;83.8
56272;BME280;42177;48.914;18.160;2024-03-22T06:11:13;988.3;;;11.8;83.1
56272;BME280;42177;48.914;18.160;2024-03-22T06:16:13;988.3;;;11.8;83.1
56272;BME280;42177;48.914;18.160;2024-03-22T06:21:13;988.3;;;12.3;81.8
56272;BME280;42177;48.914;18.160;2024-03-22T06:26:13;988.3;;;12.3;81.8
56272;BME280;42177;48.914;18.160;2024-03-22T06:31:13;988.4;;;12.1;83.7
56272;BME280;42177;48.914;18.160;2024-03-22T06:36:13;988.4;;;12.1;83.7
56272;BME280;42177;48.914;18.160;2024-03-22T06:41:13;988.5;;;12.3;85.5
56272;BME280;42177;48.914;18.160;2024-03-22T06:46:13;988.5;;;12.3;85.5
56272;BME280;42177;48.914;18.160;2024-03-22T06:51:14;988.7;;;12.6;84.8
56272;BME280;42177;48.914;18.160;2024-03-22T06:56:13;988.7;;;12.6;84.8
56272;BME280;42177;48.914;18.160;2024-03-22T07:01:13;988.4;;;12.6;83.8
56272;BME280;42177;48.914;18.160;2024-03-22T07:06:13;988.4;;;12.6;83.8
56272;BME280;42177;48.914;18.160;2024-03-22T07:11:13;988.5;;;12.8;82.7
56272;BME280;42177;48.914;18.160;2024-03-22T07:16:13;988.5;;;12.8;82.7
56272;BME280;42177;48.914;18.160;2024-03-22T07:21:13;988.4;;;13.3;78.6
56272;BME280;42177;48.914;18.160;2024-03-22T07:26:13;988.4;;;13.3;78.6
56272;BME280;42177;48.914;18.160;2024-03-22T07:31:13;988.5;;;13.2;77.8
56272;BME280;42177;48.914;18.160;2024-03-22T07:36:15;988.5;;;13.2;77.8
56272;BME280;42177;48.914;18.160;2024-03-22T07:41:13;988.5;;;13.3;78.1
56272;BME280;42177;48.914;18.160;2024-03-22T07:46:13;988.5;;;13.3;78.1
56272;BME280;42177;48.914;18.160;2024-03-22T07:51:13;988.5;;;13.3;76.5
56272;BME280;42177;48.914;18.160;2024-03-22T07:56:13;988.5;;;13.3;76.5
56272;BME280;42177;48.914;18.160;2024-03-22T08:01:13;988.3;;;13.1;74.9
56272;BME280;42177;48.914;18.160;2024-03-22T08:06:13;988.3;;;13.1;74.9
56272;BME280;42177;48.914;18.160;2024-03-22T08:11:13;988.3;;;13.3;74.2
56272;BME280;42177;48.914;18.160;2024-03-22T08:16:13;988.3;;;13.3;74.2
56272;BME280;42177;48.914;18.160;2024-03-22T08:21:13;988.2;;;13.1;74.4
56272;BME280;42177;48.914;18.160;2024-03-22T08:26:13;988.2;;;13.1;74.4
56272;BME280;42177;48.914;18.160;2024-03-22T08:31:13;988.4;;;13.1;73.7
56272;BME280;42177;48.914;18.160;2024-03-22T08:36:13;988.4;;;13.1;73.7
56272;BME280;42177;48.914;18.160;2024-03-22T08:41:13;988.3;;;13.2;73.7
56272;BME280;42177;48.914;18.160;2024-03-22T08:46:13;988.3;;;13.2;73.7
56272;BME280;42177;48.914;18.160;2024-03-22T08:51:13;988.3;;;13.3;72.9
56272;BME280;42177;48.914;18.160;2024-03-22T08:56:13;988.3;;;13.3;72.9
56272;BME280;42177;48.914;18.160;2024-03-22T09:01:13;988.1;;;13.4;71.4
56272;BME280;42177;48.914;18.160;2024-03-22T09:06:13;988.1;;;13.4;71.4
56272;BME280;42177;48.914;18.160;2024-03-22T09:11:13;987.9;;;13.9;69.7
56272;BME280;42177;48.914;18.160;2024-03-22T09:16:13;987.9;;;13.9;69.7
56272;BME280;42177;48.914;18.160;2024-03-22T09:21:13;988;;;13.7;68.4
56272;BME280;42177;48.914;18.160;2024-03-22T09:26:13;988;;;13.7;68.4
56272;BME280;42177;48.914;18.160;2024-03-22T09:31:13;988;;;13.7;67.9
56272;BME280;42177;48.914;18.160;2024-03-22T09:36:13;988;;;13.7;67.9
56272;BME280;42177;48.914;18.160;2024-03-22T09:41:13;988;;;13.8;66.4
56272;BME280;42177;48.914;18.160;2024-03-22T09:46:13;988;;;13.8;66.4
56272;BME280;42177;48.914;18.160;2024-03-22T09:51:13;987.9;;;13.7;66.7
56272;BME280;42177;48.914;18.160;2024-03-22T09:56:13;987.9;;;13.7;66.7
56272;BME280;42177;48.914;18.160;2024-03-22T10:01:13;988;;;14.1;64.8
56272;BME280;42177;48.914;18.160;2024-03-22T10:06:13;988;;;14.1;64.8
56272;BME280;42177;48.914;18.160;2024-03-22T10:11:13;987.9;;;14.1;65.3
56272;BME280;42177;48.914;18.160;2024-03-22T10:16:13;987.9;;;14.1;65.3
56272;BME280;42177;48.914;18.160;2024-03-22T10:21:16;987.8;;;14.3;63.3
56272;BME280;42177;48.914;18.160;2024-03-22T10:26:13;987.8;;;14.3;63.3
56272;BME280;42177;48.914;18.160;2024-03-22T10:31:13;987.8;;;14.2;63.6
56272;BME280;42177;48.914;18.160;2024-03-22T10:36:13;987.8;;;14.2;63.6
56272;BME280;42177;48.914;18.160;2024-03-22T10:41:13;987.8;;;14;63.6
56272;BME280;42177;48.914;18.160;2024-03-22T10:46:13;987.8;;;14;63.6
56272;BME280;42177;48.914;18.160;2024-03-22T10:51:13;987.7;;;13.7;65.6
56272;BME280;42177;48.914;18.160;2024-03-22T10:56:13;987.7;;;13.7;65.6
56272;BME280;42177;48.914;18.160;2024-03-22T11:01:21;987.5;;;14;65.4
56272;BME280;42177;48.914;18.160;2024-03-22T11:06:13;987.5;;;14;65.4
56272;BME280;42177;48.914;18.160;2024-03-22T11:11:13;987.4;;;14.2;64
56272;BME280;42177;48.914;18.160;2024-03-22T11:16:13;987.4;;;14.2;64
56272;BME280;42177;48.914;18.160;2024-03-22T11:21:13;987.3;;;14;65.6
56272;BME280;42177;48.914;18.160;2024-03-22T11:26:13;987.3;;;14;65.6
56272;BME280;42177;48.914;18.160;2024-03-22T11:31:13;987.3;;;14.2;64.4
56272;BME280;42177;48.914;18.160;2024-03-22T11:36:13;987.3;;;14.2;64.4
56272;BME280;42177;48.914;18.160;2024-03-22T11:41:13;987.2;;;14.5;64.3
56272;BME280;42177;48.914;18.160;2024-03-22T11:46:13;987.2;;;14.5;64.3
56272;BME280;42177;48.914;18.160;2024-03-22T11:51:13;987;;;14.9;63.4
56272;BME280;42177;48.914;18.160;2024-03-22T11:56:13;987;;;14.9;63.4
56272;BME280;42177;48.914;18.160;2024-03-22T12:01:13;986.9;;;15.5;61.3
56272;BME280;42177;48.914;18.160;2024-03-22T12:06:13;986.9;;;15.5;61.3
56272;BME280;42177;48.914;18.160;2024-03-22T12:11:13;986.7;;;16.1;58.6
56272;BME280;42177;48.914;18.160;2024-03-22T12:16:13;986.7;;;16.1;58.6
56272;BME280;42177;48.914;18.160;2024-03-22T12:21:13;986.6;;;16.6;57.9
56272;BME280;42177;48.914;18.160;2024-03-22T12:26:13;986.6;;;16.6;57.9
56272;BME280;42177;48.914;18.160;2024-03-22T12:31:13;986.6;;;16.5;55.6
56272;BME280;42177;48.914;18.160;2024-03-22T12:36:13;986.6;;;16.5;55.6
56272;BME280;42177;48.914;18.160;2024-03-22T12:41:13;986.6;;;15.9;58.1
56272;BME280;42177;48.914;18.160;2024-03-22T12:46:13;986.6;;;15.9;58.1
56272;BME280;42177;48.914;18.160;2024-03-22T12:51:13;986.4;;;16.1;55.6
56272;BME280;42177;48.914;18.160;2024-03-22T12:56:13;986.4;;;16.1;55.6
56272;BME280;42177;48.914;18.160;2024-03-22T13:01:13;986.1;;;15.9;55.4
56272;BME280;42177;48.914;18.160;2024-03-22T13:06:13;986.1;;;15.9;55.4
56272;BME280;42177;48.914;18.160;2024-03-22T13:11:13;986.1;;;16.3;55.5
56272;BME280;42177;48.914;18.160;2024-03-22T13:16:13;986.1;;;16.3;55.5
56272;BME280;42177;48.914;18.160;2024-03-22T13:21:13;986.1;;;16.9;53.3
56272;BME280;42177;48.914;18.160;2024-03-22T13:26:13;986.1;;;16.9;53.3
56272;BME280;42177;48.914;18.160;2024-03-22T13:31:13;985.9;;;16.8;51.3
56272;BME280;42177;48.914;18.160;2024-03-22T13:36:13;985.9;;;16.8;51.3
56272;BME280;42177;48.914;18.160;2024-03-22T13:41:13;985.9;;;17.3;50.1
56272;BME280;42177;48.914;18.160;2024-03-22T13:46:13;985.9;;;17.3;50.1
56272;BME280;42177;48.914;18.160;2024-03-22T13:51:13;985.5;;;18.6;47
56272;BME280;42177;48.914;18.160;2024-03-22T13:56:13;985.5;;;18.6;47
56272;BME280;42177;48.914;18.160;2024-03-22T14:01:13;985.4;;;18.3;47.7
56272;BME280;42177;48.914;18.160;2024-03-22T14:06:13;985.4;;;18.3;47.7
56272;BME280;42177;48.914;18.160;2024-03-22T14:11:13;985.3;;;17.8;48.8
56272;BME280;42177;48.914;18.160;2024-03-22T14:16:13;985.3;;;17.8;48.8
56272;BME280;42177;48.914;18.160;2024-03-22T14:21:13;985.1;;;16.7;51.2
56272;BME280;42177;48.914;18.160;2024-03-22T14:26:13;985.1;;;16.7;51.2
56272;BME280;42177;48.914;18.160;2024-03-22T14:31:13;985.1;;;16.6;49.2
56272;BME280;42177;48.914;18.160;2024-03-22T14:36:13;985.1;;;16.6;49.2
56272;BME280;42177;48.914;18.160;2024-03-22T14:41:13;984.9;;;16.8;48.5
56272;BME280;42177;48.914;18.160;2024-03-22T14:46:13;984.9;;;16.8;48.5
56272;BME280;42177;48.914;18.160;2024-03-22T14:51:13;984.8;;;16;49
56272;BME280;42177;48.914;18.160;2024-03-22T14:56:13;984.8;;;16;49
56272;BME280;42177;48.914;18.160;2024-03-22T15:01:13;984.8;;;15.7;49.9
56272;BME280;42177;48.914;18.160;2024-03-22T15:06:13;984.8;;;15.7;49.9
56272;BME280;42177;48.914;18.160;2024-03-22T15:11:13;984.8;;;15.9;48.8
56272;BME280;42177;48.914;18.160;2024-03-22T15:16:13;984.8;;;15.9;48.8
56272;BME280;42177;48.914;18.160;2024-03-22T15:21:13;984.7;;;16.2;49.7
56272;BME280;42177;48.914;18.160;2024-03-22T15:26:13;984.7;;;16.2;49.7
56272;BME280;42177;48.914;18.160;2024-03-22T15:31:13;984.7;;;16.1;50.5
56272;BME280;42177;48.914;18.160;2024-03-22T15:36:13;984.7;;;16.1;50.5
56272;BME280;42177;48.914;18.160;2024-03-22T15:41:13;984.5;;;15.9;50.8
56272;BME280;42177;48.914;18.160;2024-03-22T15:46:13;984.5;;;15.9;50.8
56272;BME280;42177;48.914;18.160;2024-03-22T15:51:13;984.4;;;16.3;50.8
56272;BME280;42177;48.914;18.160;2024-03-22T15:56:13;984.4;;;16.3;50.8
56272;BME280;42177;48.914;18.160;2024-03-22T16:01:13;984.5;;;16.3;50.6
56272;BME280;42177;48.914;18.160;2024-03-22T16:06:13;984.5;;;16.3;50.6
56272;BME280;42177;48.914;18.160;2024-03-22T16:11:13;984.5;;;16.1;51.1
56272;BME280;42177;48.914;18.160;2024-03-22T16:16:13;984.5;;;16.1;51.1
56272;BME280;42177;48.914;18.160;2024-03-22T16:21:13;984.3;;;15.8;52
56272;BME280;42177;48.914;18.160;2024-03-22T16:26:13;984.3;;;15.8;52
56272;BME280;42177;48.914;18.160;2024-03-22T16:31:13;984.3;;;15.5;51.4
56272;BME280;42177;48.914;18.160;2024-03-22T16:36:13;984.3;;;15.5;51.4
56272;BME280;42177;48.914;18.160;2024-03-22T16:41:13;984.3;;;15.2;52.9
56272;BME280;42177;48.914;18.160;2024-03-22T16:46:13;984.3;;;15.2;52.9
56272;BME280;42177;48.914;18.160;2024-03-22T16:51:13;984.3;;;15.1;55
56272;BME280;42177;48.914;18.160;2024-03-22T16:56:13;984.3;;;15.1;55
56272;BME280;42177;48.914;18.160;2024-03-22T17:01:13;984.2;;;14.8;55.4
56272;BME280;42177;48.914;18.160;2024-03-22T17:06:13;984.2;;;14.8;55.4
56272;BME280;42177;48.914;18.160;2024-03-22T17:11:13;984.2;;;14.4;57.3
56272;BME280;42177;48.914;18.160;2024-03-22T17:16:13;984.2;;;14.4;57.3
56272;BME280;42177;48.914;18.160;2024-03-22T17:21:13;984.2;;;14.5;58.1
56272;BME280;42177;48.914;18.160;2024-03-22T17:26:13;984.2;;;14.5;58.1
56272;BME280;42177;48.914;18.160;2024-03-22T17:31:13;984.1;;;14.3;57.4
56272;BME280;42177;48.914;18.160;2024-03-22T17:36:13;984.1;;;14.3;57.4
56272;BME280;42177;48.914;18.160;2024-03-22T17:41:13;984.1;;;14.2;59
56272;BME280;42177;48.914;18.160;2024-03-22T17:46:13;984.1;;;14.2;59
56272;BME280;42177;48.914;18.160;2024-03-22T17:51:13;984.1;;;13.9;59.8
56272;BME280;42177;48.914;18.160;2024-03-22T17:56:13;984.1;;;13.9;59.8
56272;BME280;42177;48.914;18.160;2024-03-22T18:01:13;984;;;13.7;61.5
56272;BME280;42177;48.914;18.160;2024-03-22T18:06:13;984;;;13.7;61.5
56272;BME280;42177;48.914;18.160;2024-03-22T18:11:13;984;;;13.5;62.2
56272;BME280;42177;48.914;18.160;2024-03-22T18:16:13;984;;;13.5;62.2
56272;BME280;42177;48.914;18.160;2024-03-22T18:21:13;983.9;;;13.3;63.5
56272;BME280;42177;48.914;18.160;2024-03-22T18:26:13;983.9;;;13.3;63.5
56272;BME280;42177;48.914;18.160;2024-03-22T18:31:13;983.9;;;13.2;63.1
56272;BME280;42177;48.914;18.160;2024-03-22T18:36:13;983.9;;;13.2;63.1
56272;BME280;42177;48.914;18.160;2024-03-22T18:41:13;983.8;;;13.1;63.3
56272;BME280;42177;48.914;18.160;2024-03-22T18:46:13;983.8;;;13.1;63.3
56272;BME280;42177;48.914;18.160;2024-03-22T18:51:13;983.7;;;13.1;63.7
56272;BME280;42177;48.914;18.160;2024-03-22T18:56:13;983.7;;;13.1;63.7
56272;BME280;42177;48.914;18.160;2024-03-22T19:01:13;983.7;;;13.1;63.5
56272;BME280;42177;48.914;18.160;2024-03-22T19:06:13;983.7;;;13.1;63.5
56272;BME280;42177;48.914;18.160;2024-03-22T19:11:13;983.5;;;13;63.9
56272;BME280;42177;48.914;18.160;2024-03-22T19:16:13;983.5;;;13;63.9
56272;BME280;42177;48.914;18.160;2024-03-22T19:21:13;983.5;;;13;64.4
56272;BME280;42177;48.914;18.160;2024-03-22T19:26:13;983.5;;;13;64.4
56272;BME280;42177;48.914;18.160;2024-03-22T19:31:13;983.6;;;12.9;65.7
56272;BME280;42177;48.914;18.160;2024-03-22T19:36:13;983.6;;;12.9;65.7
56272;BME280;42177;48.914;18.160;2024-03-22T19:41:14;983.4;;;12.9;65.2
56272;BME280;42177;48.914;18.160;2024-03-22T19:46:14;983.4;;;12.9;65.2
56272;BME280;42177;48.914;18.160;2024-03-22T19:51:13;983.4;;;13.1;65.2
56272;BME280;42177;48.914;18.160;2024-03-22T19:56:13;983.4;;;13.1;65.2
56272;BME280;42177;48.914;18.160;2024-03-22T20:01:13;983.2;;;13.1;63.9
56272;BME280;42177;48.914;18.160;2024-03-22T20:06:13;983.2;;;13.1;63.9
56272;BME280;42177;48.914;18.160;2024-03-22T20:11:13;983.1;;;12.8;65.4
56272;BME280;42177;48.914;18.160;2024-03-22T20:16:13;983.1;;;12.8;65.4
56272;BME280;42177;48.914;18.160;2024-03-22T20:21:13;983;;;12.7;66.4
56272;BME280;42177;48.914;18.160;2024-03-22T20:26:13;983;;;12.7;66.4
56272;BME280;42177;48.914;18.160;2024-03-22T20:31:13;983;;;12.5;68.1
56272;BME280;42177;48.914;18.160;2024-03-22T20:36:13;983;;;12.5;68.1
